createdAt,value
2019-06-10T00:03:20.611Z,1003.73
2019-06-10T00:07:35.471Z,1003.64
2019-06-10T00:10:15.872Z,1003.59
2019-06-10T00:11:15.444Z,1003.62
2019-06-10T00:13:56.588Z,1003.63
2019-06-10T00:22:15.201Z,1003.71
2019-06-10T00:23:13.797Z,1003.71
2019-06-10T00:25:54.014Z,1003.69
2019-06-10T00:26:52.646Z,1003.63
2019-06-10T00:27:51.312Z,1003.68
2019-06-10T00:30:15.198Z,1003.71
2019-06-10T00:31:13.904Z,1003.69
2019-06-10T00:32:13.261Z,1003.62
2019-06-10T00:33:12.427Z,1003.6
2019-06-10T00:34:12.079Z,1003.62
2019-06-10T00:35:09.395Z,1003.66
2019-06-10T00:36:08.355Z,1003.7
2019-06-10T00:37:06.231Z,1003.68
2019-06-10T00:38:05.985Z,1003.66
2019-06-10T00:39:03.988Z,1003.67
2019-06-10T00:40:02.530Z,1003.62
2019-06-10T00:41:02.237Z,1003.65
2019-06-10T00:42:00.053Z,1003.61
2019-06-10T00:42:56.757Z,1003.51
2019-06-10T00:43:55.311Z,1003.49
2019-06-10T00:44:53.860Z,1003.5
2019-06-10T00:45:52.533Z,1003.51
2019-06-10T00:46:51.712Z,1003.5
2019-06-10T00:47:50.899Z,1003.49
2019-06-10T00:48:50.749Z,1003.47
2019-06-10T00:49:47.044Z,1003.46
2019-06-10T00:50:45.589Z,1003.46
2019-06-10T00:51:44.141Z,1003.38
2019-06-10T00:52:45.269Z,1003.41
2019-06-10T00:53:42.244Z,1003.42
2019-06-10T00:54:41.707Z,1003.41
2019-06-10T00:55:41.144Z,1003.46
2019-06-10T00:56:37.190Z,1003.43
2019-06-10T00:57:35.945Z,1003.43
2019-06-10T00:58:34.514Z,1003.46
2019-06-10T00:59:33.063Z,1003.42
2019-06-10T01:00:31.879Z,1003.43
2019-06-10T01:01:31.234Z,1003.43
2019-06-10T01:02:28.709Z,1003.47
2019-06-10T01:03:27.266Z,1003.46
2019-06-10T01:04:25.831Z,1003.44
2019-06-10T01:05:24.417Z,1003.4
2019-06-10T01:06:22.968Z,1003.37
2019-06-10T01:07:21.892Z,1003.33
2019-06-10T01:08:21.403Z,1003.29
2019-06-10T01:09:18.843Z,1003.22
2019-06-10T01:10:17.367Z,1003.19
2019-06-10T01:11:20.973Z,1003.14
2019-06-10T01:12:15.047Z,1003.06
2019-06-10T01:13:15.046Z,1003.04
2019-06-10T01:14:13.517Z,1002.98
2019-06-10T01:15:12.474Z,1003
2019-06-10T01:16:10.049Z,1002.94
2019-06-10T01:17:07.944Z,1002.95
2019-06-10T01:18:07.614Z,1002.92
2019-06-10T01:19:05.735Z,1002.84
2019-06-10T01:20:03.933Z,1002.77
2019-06-10T01:21:03.770Z,1002.66
2019-06-10T01:22:01.514Z,1002.67
2019-06-10T01:23:01.525Z,1002.62
2019-06-10T01:23:58.172Z,1002.72
2019-06-10T01:24:56.683Z,1002.73
2019-06-10T01:25:55.280Z,1002.74
2019-06-10T01:26:53.936Z,1002.77
2019-06-10T01:27:52.554Z,1002.79
2019-06-10T01:28:51.574Z,1002.79
2019-06-10T01:29:51.059Z,1002.82
2019-06-10T01:30:48.414Z,1002.79
2019-06-10T01:31:47.017Z,1002.78
2019-06-10T01:32:45.599Z,1002.81
2019-06-10T01:33:44.206Z,1002.88
2019-06-10T01:34:42.804Z,1002.87
2019-06-10T01:35:41.789Z,1002.87
2019-06-10T01:36:40.529Z,1002.83
2019-06-10T01:37:41.229Z,1002.76
2019-06-10T01:38:37.595Z,1002.79
2019-06-10T01:39:36.240Z,1002.79
2019-06-10T01:40:34.792Z,1002.83
2019-06-10T01:41:33.362Z,1002.83
2019-06-10T01:42:31.896Z,1002.9
2019-06-10T01:43:31.959Z,1002.93
2019-06-10T01:44:30.954Z,1002.98
2019-06-10T01:45:27.523Z,1003.04
2019-06-10T01:46:26.263Z,1003.01
2019-06-10T01:47:24.803Z,1003.02
2019-06-10T01:48:23.356Z,1002.99
2019-06-10T01:49:22.013Z,1003.09
2019-06-10T01:50:21.764Z,1003.14
2019-06-10T01:51:21.287Z,1003.14
2019-06-10T01:52:18.422Z,1003.2
2019-06-10T01:53:17.555Z,1003.12
2019-06-10T01:54:16.467Z,1003.14
2019-06-10T01:55:15.265Z,1003.13
2019-06-10T01:56:14.205Z,1003.1
2019-06-10T01:57:12.461Z,1003.17
2019-06-10T01:58:10.442Z,1003.16
2019-06-10T01:59:10.927Z,1003.22
2019-06-10T02:00:09.841Z,1003.22
2019-06-10T02:01:05.540Z,1003.26
2019-06-10T02:02:04.150Z,1003.31
2019-06-10T02:03:03.628Z,1003.32
2019-06-10T02:04:01.242Z,1003.31
2019-06-10T02:05:01.503Z,1003.35
2019-06-10T02:06:01.177Z,1003.39
2019-06-10T02:06:56.981Z,1003.35
2019-06-10T02:07:55.535Z,1003.32
2019-06-10T02:08:54.236Z,1003.3
2019-06-10T02:09:52.817Z,1003.25
2019-06-10T02:10:51.358Z,1003.21
2019-06-10T02:11:51.351Z,1003.24
2019-06-10T02:12:50.731Z,1003.24
2019-06-10T02:13:47.174Z,1003.31
2019-06-10T02:14:45.879Z,1003.33
2019-06-10T02:15:44.439Z,1003.35
2019-06-10T02:16:42.987Z,1003.41
2019-06-10T02:17:41.812Z,1003.39
2019-06-10T02:18:41.092Z,1003.35
2019-06-10T02:19:38.838Z,1003.32
2019-06-10T02:20:37.408Z,1003.33
2019-06-10T02:21:36.357Z,1003.28
2019-06-10T02:22:34.906Z,1003.34
2019-06-10T02:23:33.442Z,1003.3
2019-06-10T02:24:32.013Z,1003.26
2019-06-10T02:25:30.604Z,1003.23
2019-06-10T02:26:30.842Z,1003.26
2019-06-10T02:27:27.705Z,1003.22
2019-06-10T02:28:26.288Z,1003.27
2019-06-10T02:29:24.852Z,1003.27
2019-06-10T02:30:38.858Z,1003.26
2019-06-10T02:31:29.895Z,1003.29
2019-06-10T02:32:28.513Z,1003.25
2019-06-10T02:33:27.464Z,1003.28
2019-06-10T02:34:22.701Z,1003.21
2019-06-10T02:35:26.977Z,1003.19
2019-06-10T02:36:18.080Z,1003.2
2019-06-10T02:37:17.685Z,1003.22
2019-06-10T02:38:17.438Z,1003.21
2019-06-10T02:39:13.238Z,1003.15
2019-06-10T02:40:09.380Z,1003.14
2019-06-10T02:41:07.965Z,1003.11
2019-06-10T02:42:06.620Z,1003.15
2019-06-10T02:43:05.190Z,1003.09
2019-06-10T02:44:04.406Z,1003.11
2019-06-10T02:45:03.595Z,1003.11
2019-06-10T02:46:03.861Z,1003.15
2019-06-10T02:46:59.574Z,1003.26
2019-06-10T02:47:58.387Z,1003.31
2019-06-10T02:49:13.590Z,1003.35
2019-06-10T02:50:01.662Z,1003.33
2019-06-10T02:50:54.497Z,1003.28
2019-06-10T02:51:53.733Z,1003.2
2019-06-10T02:52:53.046Z,1003.19
2019-06-10T02:53:53.530Z,1003.22
2019-06-10T02:54:48.800Z,1003.26
2019-06-10T02:55:47.379Z,1003.26
2019-06-10T02:56:46.004Z,1003.29
2019-06-10T02:57:45.269Z,1003.32
2019-06-10T02:58:44.751Z,1003.29
2019-06-10T02:59:43.512Z,1003.29
2019-06-10T03:00:47.350Z,1003.29
2019-06-10T03:01:39.152Z,1003.21
2019-06-10T03:02:37.676Z,1003.18
2019-06-10T03:03:43.496Z,1003.15
2019-06-10T03:04:37.474Z,1003.1
2019-06-10T03:05:40.461Z,1003.07
2019-06-10T03:06:38.876Z,1003.05
2019-06-10T03:07:32.372Z,1002.96
2019-06-10T03:08:31.444Z,1002.95
2019-06-10T03:09:31.820Z,1002.91
2019-06-10T03:10:30.740Z,1002.94
2019-06-10T03:11:27.830Z,1002.93
2019-06-10T03:12:25.492Z,1002.89
2019-06-10T03:13:24.179Z,1002.84
2019-06-10T03:14:22.553Z,1002.79
2019-06-10T03:15:19.996Z,1002.75
2019-06-10T03:16:18.355Z,1002.72
2019-06-10T03:17:17.756Z,1002.68
2019-06-10T03:18:15.767Z,1002.64
2019-06-10T03:19:13.998Z,1002.59
2019-06-10T03:20:12.631Z,1002.58
2019-06-10T03:21:12.367Z,1002.61
2019-06-10T03:22:09.720Z,1002.56
2019-06-10T03:23:08.399Z,1002.55
2019-06-10T03:24:06.929Z,1002.51
2019-06-10T03:25:05.548Z,1002.47
2019-06-10T03:26:04.496Z,1002.44
2019-06-10T03:27:02.833Z,1002.42
2019-06-10T03:28:03.040Z,1002.41
2019-06-10T03:29:02.511Z,1002.37
2019-06-10T03:29:58.707Z,1002.33
2019-06-10T03:30:58.891Z,1002.25
2019-06-10T03:31:55.894Z,1002.28
2019-06-10T03:32:55.519Z,1002.23
2019-06-10T03:33:54.189Z,1002.21
2019-06-10T03:34:54.730Z,1002.23
2019-06-10T03:35:52.128Z,1002.26
2019-06-10T03:36:48.995Z,1002.26
2019-06-10T03:37:47.611Z,1002.23
2019-06-10T03:38:46.185Z,1002.19
2019-06-10T03:39:44.783Z,1002.13
2019-06-10T03:40:43.485Z,1002.11
2019-06-10T03:41:42.325Z,1002
2019-06-10T03:42:42.576Z,1001.92
2019-06-10T03:43:38.994Z,1001.87
2019-06-10T03:44:37.590Z,1001.89
2019-06-10T03:45:36.288Z,1001.93
2019-06-10T03:46:34.840Z,1001.93
2019-06-10T03:47:33.394Z,1001.93
2019-06-10T03:48:32.957Z,1001.89
2019-06-10T03:49:32.144Z,1001.88
2019-06-10T03:50:29.550Z,1001.86
2019-06-10T03:51:28.613Z,1001.87
2019-06-10T03:52:28.124Z,1001.94
2019-06-10T03:53:26.749Z,1001.93
2019-06-10T03:54:26.172Z,1001.99
2019-06-10T03:55:24.945Z,1002
2019-06-10T03:56:23.224Z,1001.94
2019-06-10T03:57:21.601Z,1001.95
2019-06-10T03:58:19.921Z,1001.93
2019-06-10T03:59:17.229Z,1001.84
2019-06-10T04:00:15.746Z,1001.85
2019-06-10T04:01:14.353Z,1001.85
2019-06-10T04:03:37.258Z,1002.02
2019-06-10T04:04:35.842Z,1001.99
2019-06-10T04:05:34.493Z,1002.03
2019-06-10T04:06:33.734Z,1001.97
2019-06-10T04:20:11.266Z,1002.02
2019-06-10T04:21:05.283Z,1002.04
2019-06-10T04:22:03.886Z,1002.02
2019-06-10T04:23:02.813Z,1002
2019-06-10T04:24:02.195Z,1002
2019-06-10T04:24:59.576Z,1001.98
2019-06-10T04:25:58.397Z,1002.01
2019-06-10T04:26:56.956Z,1002.05
2019-06-10T04:27:55.499Z,1002.04
2019-06-10T04:28:54.093Z,1002.07
2019-06-10T04:29:52.622Z,1002.04
2019-06-10T04:30:53.055Z,1002.12
2019-06-10T04:31:52.237Z,1002.18
2019-06-10T04:32:48.567Z,1002.22
2019-06-10T04:33:47.128Z,1002.32
2019-06-10T04:34:45.678Z,1002.29
2019-06-10T04:35:44.288Z,1002.3
2019-06-10T04:36:42.952Z,1002.32
2019-06-10T04:37:42.776Z,1002.29
2019-06-10T04:38:40.241Z,1002.21
2019-06-10T04:39:38.795Z,1002.23
2019-06-10T04:40:37.347Z,1002.29
2019-06-10T04:41:35.896Z,1002.34
2019-06-10T04:42:34.462Z,1002.38
2019-06-10T04:43:32.994Z,1002.38
2019-06-10T04:44:32.933Z,1002.35
2019-06-10T04:45:32.355Z,1002.4
2019-06-10T04:46:29.600Z,1002.44
2019-06-10T04:47:28.269Z,1002.47
2019-06-10T04:48:26.557Z,1002.52
2019-06-10T04:49:26.378Z,1002.63
2019-06-10T04:50:33.012Z,1002.65
2019-06-10T04:51:23.761Z,1002.7
2019-06-10T04:52:21.087Z,1002.76
2019-06-10T04:53:18.955Z,1002.78
2019-06-10T04:54:18.667Z,1002.8
2019-06-10T04:55:16.116Z,1002.76
2019-06-10T04:56:14.638Z,1002.82
2019-06-10T04:57:13.252Z,1002.81
2019-06-10T04:58:12.935Z,1002.83
2019-06-10T04:59:12.453Z,1002.82
2019-06-10T05:00:11.927Z,1002.82
2019-06-10T05:01:07.693Z,1002.84
2019-06-10T05:02:06.472Z,1002.82
2019-06-10T05:03:05.020Z,1002.8
2019-06-10T05:04:03.588Z,1002.81
2019-06-10T05:05:02.855Z,1002.73
2019-06-10T05:06:02.999Z,1002.71
2019-06-10T05:06:59.341Z,1002.68
2019-06-10T05:07:57.879Z,1002.68
2019-06-10T05:08:56.450Z,1002.73
2019-06-10T05:09:55.067Z,1002.72
2019-06-10T05:10:53.684Z,1002.8
2019-06-10T05:11:52.360Z,1002.86
2019-06-10T05:12:52.550Z,1002.9
2019-06-10T05:13:49.505Z,1002.93
2019-06-10T05:14:48.317Z,1002.99
2019-06-10T05:15:46.858Z,1002.98
2019-06-10T05:16:45.383Z,1002.99
2019-06-10T05:17:44.035Z,1002.96
2019-06-10T05:18:42.666Z,1002.85
2019-06-10T05:19:42.801Z,1002.82
2019-06-10T05:20:51.849Z,1002.79
2019-06-10T05:21:38.213Z,1002.75
2019-06-10T05:22:36.802Z,1002.73
2019-06-10T05:23:35.389Z,1002.75
2019-06-10T05:24:34.452Z,1002.76
2019-06-10T05:25:32.808Z,1002.73
2019-06-10T05:26:33.505Z,1002.8
2019-06-10T05:27:30.644Z,1002.8
2019-06-10T05:28:28.709Z,1002.84
2019-06-10T05:29:28.306Z,1002.88
2019-06-10T05:30:27.432Z,1002.87
2019-06-10T05:31:27.303Z,1002.86
2019-06-10T05:32:23.246Z,1002.89
2019-06-10T05:33:23.040Z,1002.87
2019-06-10T05:34:20.390Z,1002.87
2019-06-10T05:35:18.568Z,1002.84
2019-06-10T05:36:17.155Z,1002.85
2019-06-10T05:37:15.723Z,1002.88
2019-06-10T05:38:14.345Z,1002.87
2019-06-10T05:39:12.908Z,1002.89
2019-06-10T05:40:12.712Z,1002.94
2019-06-10T05:41:10.237Z,1002.96
2019-06-10T05:42:08.928Z,1002.92
2019-06-10T05:43:07.469Z,1002.97
2019-06-10T05:44:06.045Z,1002.95
2019-06-10T05:45:04.630Z,1002.93
2019-06-10T05:46:03.292Z,1002.92
2019-06-10T05:47:03.571Z,1002.88
2019-06-10T05:48:02.738Z,1002.88
2019-06-10T05:48:59.249Z,1002.93
2019-06-10T05:49:57.803Z,1002.88
2019-06-10T05:51:02.140Z,1002.98
2019-06-10T05:51:55.005Z,1002.93
2019-06-10T05:52:53.539Z,1002.84
2019-06-10T05:53:52.736Z,1002.83
2019-06-10T05:54:52.096Z,1002.75
2019-06-10T05:55:49.157Z,1002.76
2019-06-10T05:56:47.705Z,1002.76
2019-06-10T05:57:46.625Z,1002.76
2019-06-10T05:58:45.282Z,1002.7
2019-06-10T05:59:43.974Z,1002.73
2019-06-10T06:00:42.906Z,1002.73
2019-06-10T06:01:43.091Z,1002.66
2019-06-10T06:02:39.712Z,1002.72
2019-06-10T06:03:38.270Z,1002.76
2019-06-10T06:04:36.797Z,1002.86
2019-06-10T06:05:36.564Z,1002.91
2019-06-10T06:06:35.291Z,1002.93
2019-06-10T06:07:34.274Z,1002.92
2019-06-10T06:08:33.310Z,1002.86
2019-06-10T06:09:32.276Z,1002.82
2019-06-10T06:10:29.433Z,1002.84
2019-06-10T06:11:27.315Z,1002.87
2019-06-10T06:12:25.542Z,1002.9
2019-06-10T06:13:25.345Z,1002.9
2019-06-10T06:14:22.820Z,1002.9
2019-06-10T06:15:22.051Z,1002.94
2019-06-10T06:16:19.917Z,1002.95
2019-06-10T06:17:18.439Z,1003.02
2019-06-10T06:18:16.971Z,1003.08
2019-06-10T06:19:16.406Z,1003.14
2019-06-10T06:20:14.938Z,1003.13
2019-06-10T06:21:24.792Z,1003.11
2019-06-10T06:22:12.924Z,1003.16
2019-06-10T06:23:12.228Z,1003.11
2019-06-10T06:24:09.177Z,1003.14
2019-06-10T06:25:07.821Z,1003.2
2019-06-10T06:26:06.523Z,1003.21
2019-06-10T06:27:05.082Z,1003.22
2019-06-10T06:28:03.657Z,1003.19
2019-06-10T06:29:02.669Z,1003.16
2019-06-10T06:30:04.108Z,1003.17
2019-06-10T06:30:59.876Z,1003.17
2019-06-10T06:31:58.630Z,1003.17
2019-06-10T06:32:57.174Z,1003.12
2019-06-10T06:33:55.755Z,1003.11
2019-06-10T06:34:54.541Z,1003.09
2019-06-10T06:35:53.117Z,1003.07
2019-06-10T06:36:52.807Z,1003.08
2019-06-10T06:37:50.249Z,1003.09
2019-06-10T06:38:48.784Z,1003.07
2019-06-10T06:39:47.345Z,1003.08
2019-06-10T06:40:45.895Z,1003.05
2019-06-10T06:41:44.443Z,1003.11
2019-06-10T06:42:43.408Z,1003.11
2019-06-10T06:43:44.940Z,1003.05
2019-06-10T06:44:43.057Z,1003.02
2019-06-10T06:45:39.022Z,1002.99
2019-06-10T06:46:39.220Z,1002.95
2019-06-10T06:47:37.658Z,1002.96
2019-06-10T06:48:37.418Z,1002.92
2019-06-10T06:49:35.229Z,1002.93
2019-06-10T06:50:34.279Z,1002.98
2019-06-10T06:51:43.303Z,1003.02
2019-06-10T06:52:47.948Z,1003.01
2019-06-10T06:53:33.026Z,1003.01
2019-06-10T06:54:26.784Z,1003
2019-06-10T06:55:25.422Z,1002.99
2019-06-10T06:56:24.047Z,1002.99
2019-06-10T06:57:22.662Z,1002.99
2019-06-10T06:58:23.150Z,1002.89
2019-06-10T06:59:19.762Z,1002.84
2019-06-10T07:00:38.021Z,1002.83
2019-06-10T07:01:17.144Z,1002.83
2019-06-10T07:02:15.727Z,1002.81
2019-06-10T07:03:14.466Z,1002.77
2019-06-10T07:04:13.179Z,1002.82
2019-06-10T07:05:12.514Z,1002.76
2019-06-10T07:06:13.016Z,1002.71
2019-06-10T07:07:08.950Z,1002.71
2019-06-10T07:08:07.553Z,1002.7
2019-06-10T07:09:08.135Z,1002.68
2019-06-10T07:10:04.915Z,1002.58
2019-06-10T07:11:03.450Z,1002.56
2019-06-10T07:12:02.552Z,1002.53
2019-06-10T07:13:02.771Z,1002.51
2019-06-10T07:13:59.251Z,1002.52
2019-06-10T07:14:57.807Z,1002.52
2019-06-10T07:15:56.469Z,1002.51
2019-06-10T07:16:55.017Z,1002.51
2019-06-10T07:17:53.593Z,1002.49
2019-06-10T07:18:53.876Z,1002.52
2019-06-10T07:19:52.856Z,1002.48
2019-06-10T07:20:49.407Z,1002.49
2019-06-10T07:22:05.169Z,1002.53
2019-06-10T07:22:46.884Z,1002.55
2019-06-10T07:23:47.025Z,1002.59
2019-06-10T07:24:47.390Z,1002.61
2019-06-10T07:25:47.079Z,1002.61
2019-06-10T07:26:45.157Z,1002.61
2019-06-10T07:27:41.066Z,1002.54
2019-06-10T07:28:40.615Z,1002.57
2019-06-10T07:29:39.122Z,1002.56
2019-06-10T07:30:38.888Z,1002.54
2019-06-10T07:31:36.377Z,1002.52
2019-06-10T07:32:37.283Z,1002.46
2019-06-10T07:33:37.134Z,1002.47
2019-06-10T07:34:32.898Z,1002.46
2019-06-10T07:35:32.945Z,1002.4
2019-06-10T07:36:29.359Z,1002.41
2019-06-10T07:37:28.057Z,1002.44
2019-06-10T07:38:26.622Z,1002.43
2019-06-10T07:39:27.210Z,1002.4
2019-06-10T07:40:26.100Z,1002.47
2019-06-10T07:41:24.894Z,1002.44
2019-06-10T07:42:23.442Z,1002.48
2019-06-10T07:43:23.059Z,1002.51
2019-06-10T07:44:22.613Z,1002.52
2019-06-10T07:45:19.448Z,1002.53
2019-06-10T07:46:18.131Z,1002.56
2019-06-10T07:47:16.745Z,1002.58
2019-06-10T07:48:17.322Z,1002.58
2019-06-10T07:49:15.922Z,1002.54
2019-06-10T07:50:14.687Z,1002.51
2019-06-10T07:51:13.388Z,1002.48
2019-06-10T07:52:16.399Z,1002.47
2019-06-10T07:53:12.664Z,1002.48
2019-06-10T07:54:08.962Z,1002.49
2019-06-10T07:55:07.482Z,1002.55
2019-06-10T07:56:06.173Z,1002.52
2019-06-10T07:57:04.710Z,1002.56
2019-06-10T07:58:03.352Z,1002.56
2019-06-10T07:59:03.841Z,1002.59
2019-06-10T08:00:02.908Z,1002.59
2019-06-10T08:00:59.124Z,1002.59
2019-06-10T08:01:57.780Z,1002.58
2019-06-10T08:02:58.439Z,1002.61
2019-06-10T08:03:59.913Z,1002.62
2019-06-10T08:04:58.725Z,1002.64
2019-06-10T08:05:57.276Z,1002.66
2019-06-10T08:06:55.863Z,1002.65
2019-06-10T08:07:54.817Z,1002.63
2019-06-10T08:08:53.497Z,1002.56
2019-06-10T08:09:53.228Z,1002.55
2019-06-10T08:10:52.794Z,1002.48
2019-06-10T08:11:48.985Z,1002.43
2019-06-10T08:12:48.377Z,1002.43
2019-06-10T08:13:46.751Z,1002.41
2019-06-10T08:14:45.725Z,1002.43
2019-06-10T08:15:45.953Z,1002.44
2019-06-10T08:16:46.464Z,1002.47
2019-06-10T08:17:42.849Z,1002.42
2019-06-10T08:18:56.591Z,1002.44
2019-06-10T08:19:42.750Z,1002.41
2019-06-10T08:20:37.254Z,1002.38
2019-06-10T08:21:37.092Z,1002.37
2019-06-10T08:22:39.976Z,1002.35
2019-06-10T08:23:33.230Z,1002.39
2019-06-10T08:24:32.875Z,1002.38
2019-06-10T08:25:32.725Z,1002.35
2019-06-10T08:26:29.041Z,1002.3
2019-06-10T08:27:27.663Z,1002.28
2019-06-10T08:28:26.221Z,1002.29
2019-06-10T08:29:24.804Z,1002.27
2019-06-10T08:30:27.370Z,1002.28
2019-06-10T08:31:22.545Z,1002.29
2019-06-10T08:32:20.536Z,1002.27
2019-06-10T08:33:19.085Z,1002.33
2019-06-10T08:34:17.719Z,1002.35
2019-06-10T08:35:16.423Z,1002.43
2019-06-10T08:36:15.010Z,1002.46
2019-06-10T08:37:13.813Z,1002.46
2019-06-10T08:38:12.505Z,1002.5
2019-06-10T08:39:12.855Z,1002.53
2019-06-10T08:40:09.457Z,1002.54
2019-06-10T08:41:08.019Z,1002.62
2019-06-10T08:42:06.586Z,1002.61
2019-06-10T08:43:05.160Z,1002.6
2019-06-10T08:44:03.711Z,1002.57
2019-06-10T08:45:03.425Z,1002.58
2019-06-10T08:46:02.506Z,1002.53
2019-06-10T08:46:59.456Z,1002.54
2019-06-10T08:47:58.185Z,1002.55
2019-06-10T08:48:56.702Z,1002.55
2019-06-10T08:49:56.154Z,1002.52
2019-06-10T08:50:54.789Z,1002.58
2019-06-10T08:51:53.734Z,1002.51
2019-06-10T08:53:07.205Z,1002.48
2019-06-10T08:53:53.055Z,1002.41
2019-06-10T08:54:51.769Z,1002.36
2019-06-10T08:55:49.285Z,1002.33
2019-06-10T08:56:49.289Z,1002.3
2019-06-10T08:57:47.432Z,1002.29
2019-06-10T08:58:46.232Z,1002.22
2019-06-10T08:59:45.846Z,1002.23
2019-06-10T09:00:44.905Z,1002.16
2019-06-10T09:01:41.572Z,1002.11
2019-06-10T09:02:39.622Z,1002.07
2019-06-10T09:03:38.530Z,1001.98
2019-06-10T09:04:36.249Z,1001.93
2019-06-10T09:05:34.864Z,1001.93
2019-06-10T09:06:33.377Z,1001.91
2019-06-10T09:07:32.355Z,1001.89
2019-06-10T09:08:32.522Z,1001.79
2019-06-10T09:09:29.088Z,1001.71
2019-06-10T09:10:27.657Z,1001.65
2019-06-10T09:11:26.567Z,1001.62
2019-06-10T09:12:32.379Z,1001.54
2019-06-10T09:13:23.611Z,1001.46
2019-06-10T09:14:23.397Z,1001.44
2019-06-10T09:15:23.421Z,1001.35
2019-06-10T09:16:19.653Z,1001.33
2019-06-10T09:17:18.138Z,1001.24
2019-06-10T09:18:19.796Z,1001.14
2019-06-10T09:19:15.264Z,1001.1
2019-06-10T09:20:13.788Z,1000.99
2019-06-10T09:21:12.895Z,1000.89
2019-06-10T09:22:12.585Z,1000.73
2019-06-10T09:23:18.910Z,1000.71
2019-06-10T09:24:08.551Z,1000.73
2019-06-10T09:25:07.109Z,1000.84
2019-06-10T09:26:05.652Z,1001.01
2019-06-10T09:27:04.213Z,1001.11
2019-06-10T09:28:02.752Z,1001.22
2019-06-10T09:29:02.835Z,1001.27
2019-06-10T09:29:59.827Z,1001.38
2019-06-10T09:30:59.495Z,1001.38
2019-06-10T09:31:56.900Z,1001.41
2019-06-10T09:32:56.459Z,1001.48
2019-06-10T09:33:56.783Z,1001.53
2019-06-10T09:34:57.288Z,1001.6
2019-06-10T09:35:54.796Z,1001.69
2019-06-10T09:36:56.367Z,1001.73
2019-06-10T09:37:51.440Z,1001.74
2019-06-10T09:38:48.986Z,1001.79
2019-06-10T09:39:50.700Z,1001.82
2019-06-10T09:40:48.685Z,1001.85
2019-06-10T09:41:52.221Z,1001.86
2019-06-10T09:42:46.170Z,1001.79
2019-06-10T09:43:44.979Z,1001.79
2019-06-10T09:44:41.564Z,1001.71
2019-06-10T09:45:37.987Z,1001.77
2019-06-10T09:46:36.589Z,1001.77
2019-06-10T09:47:35.108Z,1001.8
2019-06-10T09:48:33.940Z,1001.86
2019-06-10T09:49:33.517Z,1001.85
2019-06-10T09:50:33.289Z,1001.82
2019-06-10T09:51:32.224Z,1001.84
2019-06-10T09:52:28.291Z,1001.86
2019-06-10T09:53:34.048Z,1001.84
2019-06-10T09:54:25.637Z,1001.83
2019-06-10T09:55:24.216Z,1001.85
2019-06-10T09:56:23.462Z,1001.87
2019-06-10T09:57:23.087Z,1001.88
2019-06-10T09:58:19.805Z,1001.96
2019-06-10T09:59:18.373Z,1001.98
2019-06-10T10:00:16.995Z,1002.02
2019-06-10T10:01:15.511Z,1002.05
2019-06-10T10:02:14.163Z,1002.04
2019-06-10T10:03:12.850Z,1002.1
2019-06-10T10:04:12.370Z,1002.05
2019-06-10T10:05:09.980Z,1002.08
2019-06-10T10:06:15.247Z,1002.06
2019-06-10T10:07:07.481Z,1001.99
2019-06-10T10:08:05.873Z,1001.97
2019-06-10T10:09:04.422Z,1001.96
2019-06-10T10:10:04.427Z,1001.99
2019-06-10T10:11:01.585Z,1001.93
2019-06-10T10:12:02.855Z,1001.88
2019-06-10T10:12:59.035Z,1001.88
2019-06-10T10:13:57.637Z,1001.85
2019-06-10T10:14:56.619Z,1001.84
2019-06-10T10:15:54.899Z,1001.83
2019-06-10T10:16:59.147Z,1001.88
2019-06-10T10:17:56.266Z,1001.78
2019-06-10T10:18:56.974Z,1001.79
2019-06-10T10:19:50.701Z,1001.79
2019-06-10T10:20:49.862Z,1001.81
2019-06-10T10:21:50.044Z,1001.76
2019-06-10T10:22:46.019Z,1001.73
2019-06-10T10:23:53.585Z,1001.7
2019-06-10T10:24:44.245Z,1001.64
2019-06-10T10:25:44.834Z,1001.54
2019-06-10T10:26:39.819Z,1001.38
2019-06-10T10:27:38.647Z,1001.12
2019-06-10T10:28:37.199Z,1000.88
2019-06-10T10:29:35.759Z,1000.71
2019-06-10T10:30:34.441Z,1000.57
2019-06-10T10:31:32.997Z,1000.49
2019-06-10T10:32:33.357Z,1000.34
2019-06-10T10:33:33.138Z,1000.12
2019-06-10T10:34:28.810Z,999.86
2019-06-10T10:35:28.058Z,999.56
2019-06-10T10:36:26.774Z,999.3
2019-06-10T10:37:25.345Z,999.2
2019-06-10T10:38:23.911Z,999.25
2019-06-10T10:39:24.576Z,999.47
2019-06-10T10:40:23.271Z,999.65
2019-06-10T10:41:19.626Z,999.76
2019-06-10T10:42:18.297Z,999.74
2019-06-10T10:43:25.053Z,999.72
2019-06-10T10:44:15.371Z,999.66
2019-06-10T10:45:14.042Z,999.66
2019-06-10T10:46:13.780Z,999.63
2019-06-10T10:47:12.405Z,999.71
2019-06-10T10:48:10.016Z,999.84
2019-06-10T10:49:08.568Z,1000.07
2019-06-10T10:50:07.425Z,1000.26
2019-06-10T10:51:05.682Z,1000.39
2019-06-10T10:52:04.251Z,1000.47
2019-06-10T10:53:03.383Z,1000.52
2019-06-10T10:54:20.671Z,1000.54
2019-06-10T10:55:04.178Z,1000.57
2019-06-10T10:55:58.831Z,1000.62
2019-06-10T10:56:59.118Z,1000.67
2019-06-10T10:57:56.115Z,1000.72
2019-06-10T10:58:56.286Z,1000.77
2019-06-10T10:59:55.978Z,1000.8
2019-06-10T11:00:54.880Z,1000.88
2019-06-10T11:01:51.591Z,1000.89
2019-06-10T11:02:51.377Z,1000.94
2019-06-10T11:03:49.982Z,1000.92
2019-06-10T11:04:47.925Z,1000.88
2019-06-10T11:05:48.021Z,1000.86
2019-06-10T11:06:44.452Z,1000.84
2019-06-10T11:07:44.365Z,1000.87
2019-06-10T11:08:42.988Z,1000.97
2019-06-10T11:09:42.008Z,1001.04
2019-06-10T11:10:38.910Z,1001.15
2019-06-10T11:11:37.528Z,1001.25
2019-06-10T11:12:36.253Z,1001.32
2019-06-10T11:13:34.840Z,1001.4
2019-06-10T11:14:34.116Z,1001.49
2019-06-10T11:15:33.712Z,1001.48
2019-06-10T11:16:32.991Z,1001.52
2019-06-10T11:17:29.644Z,1001.54
2019-06-10T11:18:28.442Z,1001.52
2019-06-10T11:19:27.182Z,1001.5
2019-06-10T11:20:25.882Z,1001.47
2019-06-10T11:21:24.788Z,1001.49
2019-06-10T11:22:23.311Z,1001.44
2019-06-10T11:23:22.809Z,1001.44
2019-06-10T11:24:33.442Z,1001.33
2019-06-10T11:25:19.269Z,1001.31
2019-06-10T11:26:17.946Z,1001.26
2019-06-10T11:27:16.555Z,1001.25
2019-06-10T11:28:15.108Z,1001.15
2019-06-10T11:29:13.726Z,1001.14
2019-06-10T11:30:12.449Z,1001.13
2019-06-10T11:31:13.006Z,1001.06
2019-06-10T11:32:10.637Z,1000.95
2019-06-10T11:33:09.199Z,1000.9
2019-06-10T11:34:07.840Z,1000.79
2019-06-10T11:35:06.597Z,1000.69
2019-06-10T11:36:05.151Z,1000.63
2019-06-10T11:37:03.723Z,1000.62
2019-06-10T11:38:03.335Z,1000.57
2019-06-10T11:39:02.782Z,1000.55
2019-06-10T11:39:59.486Z,1000.56
2019-06-10T11:41:00.029Z,1000.56
2019-06-10T11:41:57.689Z,1000.54
2019-06-10T11:42:59.296Z,1000.59
2019-06-10T11:43:57.600Z,1000.55
2019-06-10T11:44:55.319Z,1000.51
2019-06-10T11:45:57.296Z,1000.44
2019-06-10T11:46:51.233Z,1000.35
2019-06-10T11:47:49.424Z,1000.35
2019-06-10T11:48:47.285Z,1000.29
2019-06-10T11:49:46.861Z,1000.29
2019-06-10T11:50:44.496Z,1000.35
2019-06-10T11:51:43.082Z,1000.31
2019-06-10T11:52:43.287Z,1000.27
2019-06-10T11:53:40.415Z,1000.26
2019-06-10T11:54:51.534Z,1000.23
2019-06-10T11:55:37.546Z,1000.18
2019-06-10T11:56:36.085Z,1000.22
2019-06-10T11:57:34.782Z,1000.24
2019-06-10T11:58:33.507Z,1000.26
2019-06-10T11:59:32.718Z,1000.34
2019-06-10T12:00:33.033Z,1000.28
2019-06-10T12:01:29.120Z,1000.25
2019-06-10T12:02:27.763Z,1000.21
2019-06-10T12:03:26.473Z,1000.15
2019-06-10T12:04:25.018Z,1000.12
2019-06-10T12:05:23.694Z,1000.11
2019-06-10T12:06:22.791Z,1000.13
2019-06-10T12:07:22.329Z,1000.13
2019-06-10T12:08:20.422Z,1000.04
2019-06-10T12:09:18.216Z,1000.03
2019-06-10T12:10:16.870Z,999.95
2019-06-10T12:11:15.433Z,999.91
2019-06-10T12:12:14.189Z,999.93
2019-06-10T12:13:13.323Z,999.94
2019-06-10T12:14:12.823Z,999.96
2019-06-10T12:15:11.998Z,999.95
2019-06-10T12:17:40.366Z,999.98
2019-06-10T12:18:08.532Z,999.99
2019-06-10T12:19:04.349Z,1000.01
2019-06-10T12:20:03.440Z,1000
2019-06-10T12:21:03.648Z,1000
2019-06-10T12:23:43.801Z,999.88
2019-06-10T12:24:43.156Z,999.87
2019-06-10T12:25:42.926Z,999.84
2019-06-10T12:26:39.340Z,999.84
2019-06-10T12:27:37.906Z,999.88
2019-06-10T12:28:36.532Z,999.94